Time;durP1;ratioP1;P1;durP2;ratioP2;P2;SDS_P1;SDS_P2;PMS_P1;PMS_P2;Temp;Humidity;BMP_temperature;BMP_pressure;BME280_temperature;BME280_humidity;BME280_pressure;Samples;Min_cycle;Max_cycle;Signal;HPM_P1;HPM_P2
2023/12/17 00:00:32;;;;;;;22.67;16.57;;;;;;;8.32;97.87;103521.75;5053566;28;20288;-68
2023/12/17 00:02:59;;;;;;;30.83;18.00;;;;;;;8.32;97.33;103529.75;5053547;28;20195;-68
2023/12/17 00:05:45;;;;;;;35.40;17.13;;;;;;;8.39;97.77;103530.38;5053527;28;20584;-68
2023/12/17 00:08:11;;;;;;;23.63;16.20;;;;;;;8.36;97.64;103515.34;5053727;28;20267;-68
2023/12/17 00:10:38;;;;;;;29.33;18.10;;;;;;;8.35;97.87;103520.78;5053871;28;20207;-68
2023/12/17 00:13:04;;;;;;;25.93;18.07;;;;;;;8.40;97.53;103513.44;5053314;28;20679;-68
2023/12/17 00:15:31;;;;;;;32.53;17.43;;;;;;;8.36;97.71;103509.19;5053348;28;20675;-68
2023/12/17 00:17:57;;;;;;;28.80;17.07;;;;;;;8.36;97.83;103507.38;5053204;28;20252;-68
2023/12/17 00:20:24;;;;;;;31.40;16.03;;;;;;;8.44;97.18;103517.72;5053208;28;20211;-68
2023/12/17 00:22:50;;;;;;;24.73;16.23;;;;;;;8.38;97.37;103510.84;5052686;28;20190;-68
2023/12/17 00:25:17;;;;;;;26.57;16.57;;;;;;;8.43;97.11;103498.19;5053241;28;20195;-68
2023/12/17 00:27:43;;;;;;;29.13;16.20;;;;;;;8.31;97.41;103489.88;5053711;28;20187;-68
2023/12/17 00:30:10;;;;;;;22.60;14.47;;;;;;;8.38;97.99;103488.66;5053124;28;20207;-68
2023/12/17 00:32:36;;;;;;;25.70;16.93;;;;;;;8.35;97.88;103486.13;5053301;28;20207;-68
2023/12/17 00:35:03;;;;;;;24.73;15.27;;;;;;;8.32;97.70;103479.13;5053074;28;20202;-68
2023/12/17 00:37:30;;;;;;;27.13;16.97;;;;;;;8.33;97.39;103472.84;5053363;28;20647;-68
2023/12/17 00:39:56;;;;;;;21.10;15.43;;;;;;;8.24;97.82;103463.44;5053068;28;20210;-68
2023/12/17 00:42:23;;;;;;;25.80;15.80;;;;;;;8.32;97.56;103468.47;5053072;28;20184;-68
2023/12/17 00:44:49;;;;;;;26.97;16.23;;;;;;;8.28;97.47;103467.69;5053276;28;20189;-68
2023/12/17 00:47:16;;;;;;;23.57;14.93;;;;;;;8.35;97.73;103475.47;5052975;28;20273;-68
2023/12/17 00:49:42;;;;;;;22.10;15.90;;;;;;;8.24;97.48;103468.78;5052888;28;20202;-68
2023/12/17 00:52:08;;;;;;;26.43;15.27;;;;;;;8.30;97.99;103474.81;5052862;28;20235;-68
2023/12/17 00:54:35;;;;;;;27.27;16.20;;;;;;;8.29;97.31;103473.94;5053444;28;20187;-68
2023/12/17 00:57:02;;;;;;;27.33;15.70;;;;;;;8.26;97.59;103476.72;5052891;28;20184;-68
2023/12/17 00:59:28;;;;;;;23.87;16.40;;;;;;;8.33;98.10;103477.31;5052940;28;20298;-68
2023/12/17 01:01:55;;;;;;;21.87;14.97;;;;;;;8.34;97.76;103477.25;5052877;28;20252;-68
2023/12/17 01:04:21;;;;;;;20.93;15.23;;;;;;;8.27;97.69;103476.63;5052857;28;20199;-68
2023/12/17 01:06:47;;;;;;;24.40;15.50;;;;;;;8.30;98.05;103483.66;5053285;28;20191;-68
2023/12/17 01:09:15;;;;;;;21.17;15.87;;;;;;;8.28;97.87;103491.69;5052723;28;20203;-68
2023/12/17 01:11:42;;;;;;;24.10;17.20;;;;;;;8.24;98.15;103492.75;5052807;28;20211;-68
2023/12/17 01:14:09;;;;;;;29.10;17.67;;;;;;;8.32;98.29;103492.44;5052985;28;20599;-68
2023/12/17 01:16:35;;;;;;;25.13;17.47;;;;;;;8.32;98.00;103491.59;5053299;28;20202;-68
2023/12/17 01:19:02;;;;;;;21.83;16.67;;;;;;;8.19;98.19;103497.44;5052513;28;20211;-68
2023/12/17 01:21:29;;;;;;;22.67;15.33;;;;;;;8.20;98.40;103501.84;5052709;28;20187;-68
2023/12/17 01:23:58;;;;;;;28.37;14.37;;;;;;;8.10;97.97;103497.88;5052666;28;20187;-68
2023/12/17 01:26:26;;;;;;;25.07;15.40;;;;;;;8.24;98.05;103497.22;5052619;28;20240;-68
2023/12/17 01:28:53;;;;;;;25.37;15.83;;;;;;;8.30;97.90;103499.66;5053116;28;20591;-68
2023/12/17 01:31:19;;;;;;;30.37;17.03;;;;;;;8.22;97.99;103496.44;5052589;28;20183;-68
2023/12/17 01:33:46;;;;;;;31.20;16.43;;;;;;;8.19;98.40;103500.09;5054791;28;20213;-68
2023/12/17 01:36:12;;;;;;;26.93;16.83;;;;;;;8.19;98.50;103496.56;5056370;28;20635;-68
2023/12/17 01:38:39;;;;;;;23.37;15.90;;;;;;;8.19;98.44;103500.09;5056224;28;20286;-68
2023/12/17 01:41:09;;;;;;;21.47;15.60;;;;;;;8.27;98.09;103503.28;5056228;28;20191;-68
2023/12/17 01:43:35;;;;;;;24.03;14.73;;;;;;;8.19;97.97;103508.09;5056207;28;20212;-68
2023/12/17 01:46:04;;;;;;;21.70;15.07;;;;;;;8.29;97.61;103508.59;5056142;28;20191;-68
2023/12/17 01:48:31;;;;;;;30.43;15.83;;;;;;;8.22;97.92;103504.44;5056037;28;20553;-68
2023/12/17 01:50:58;;;;;;;23.67;15.03;;;;;;;8.10;98.48;103502.31;5056001;28;20191;-68
2023/12/17 01:53:25;;;;;;;25.20;16.03;;;;;;;8.11;98.74;103507.56;5056178;28;20238;-68
2023/12/17 01:55:52;;;;;;;24.30;15.97;;;;;;;8.16;98.69;103518.91;5055937;28;20195;-68
2023/12/17 01:58:20;;;;;;;21.47;14.93;;;;;;;8.21;98.67;103519.56;5055849;28;20206;-68
2023/12/17 02:00:48;;;;;;;27.23;16.17;;;;;;;8.24;98.59;103515.88;5055856;28;20241;-68
2023/12/17 02:03:15;;;;;;;28.80;17.27;;;;;;;8.16;98.93;103510.91;5056092;28;20597;-68
2023/12/17 02:05:44;;;;;;;22.80;15.47;;;;;;;8.31;98.73;103508.53;5056040;28;20557;-68
2023/12/17 02:08:11;;;;;;;27.37;16.07;;;;;;;8.35;98.27;103503.00;5055727;28;20276;-68
2023/12/17 02:10:37;;;;;;;25.90;16.10;;;;;;;8.31;97.71;103504.06;5055571;28;20211;-68
2023/12/17 02:13:04;;;;;;;22.77;16.13;;;;;;;8.26;98.33;103512.22;5055552;28;20214;-68
2023/12/17 02:15:30;;;;;;;25.40;16.17;;;;;;;8.40;97.45;103502.78;5055591;28;20705;-68
2023/12/17 02:17:57;;;;;;;18.73;14.37;;;;;;;8.36;97.92;103502.03;5055427;28;20203;-68
2023/12/17 02:20:23;;;;;;;30.87;16.63;;;;;;;8.27;98.22;103497.94;5055420;28;20213;-68
2023/12/17 02:22:56;;;;;;;24.47;16.53;;;;;;;8.32;98.18;103503.09;5055434;28;20659;-68
2023/12/17 02:25:22;;;;;;;21.03;15.20;;;;;;;8.35;97.94;103494.13;5055705;28;20180;-68
2023/12/17 02:27:49;;;;;;;21.77;15.10;;;;;;;8.33;98.12;103490.66;5055353;28;20188;-68
2023/12/17 02:30:15;;;;;;;20.80;15.73;;;;;;;8.28;97.80;103489.03;5055259;28;20240;-68
2023/12/17 02:32:42;;;;;;;24.20;16.37;;;;;;;8.29;98.49;103484.59;5055178;28;20211;-68
2023/12/17 02:35:08;;;;;;;20.07;16.50;;;;;;;8.23;98.42;103483.03;5055732;28;20191;-68
2023/12/17 02:37:34;;;;;;;24.77;15.43;;;;;;;8.28;98.28;103486.38;5055475;28;20191;-68
2023/12/17 02:40:01;;;;;;;26.87;16.37;;;;;;;8.28;97.79;103488.16;5055085;28;20619;-68
2023/12/17 02:42:27;;;;;;;23.40;16.93;;;;;;;8.31;97.97;103481.88;5055129;28;20555;-68
2023/12/17 02:44:54;;;;;;;36.90;16.80;;;;;;;8.34;97.68;103482.59;5054777;28;20191;-68
2023/12/17 02:47:20;;;;;;;29.43;17.37;;;;;;;8.32;98.25;103478.28;5055114;28;20274;-68
2023/12/17 02:49:47;;;;;;;28.83;17.53;;;;;;;8.26;98.12;103477.59;5054907;28;20211;-68
2023/12/17 02:52:13;;;;;;;26.13;17.47;;;;;;;8.33;98.25;103469.31;5054901;28;20188;-68
2023/12/17 02:54:40;;;;;;;22.53;15.57;;;;;;;8.32;98.00;103470.28;5054776;28;20210;-68
2023/12/17 02:57:06;;;;;;;20.90;16.60;;;;;;;8.30;97.61;103483.66;5055347;28;20245;-68
2023/12/17 02:59:33;;;;;;;23.60;16.67;;;;;;;8.30;97.70;103478.34;5054679;28;20238;-68
2023/12/17 03:01:59;;;;;;;32.70;16.90;;;;;;;8.25;98.03;103482.97;5054723;28;20203;-68
2023/12/17 03:04:26;;;;;;;27.43;16.20;;;;;;;8.31;97.40;103481.88;5054913;28;20602;-68
2023/12/17 03:06:52;;;;;;;23.13;16.70;;;;;;;8.30;97.34;103478.34;5054639;28;20195;-68
2023/12/17 03:09:19;;;;;;;33.07;16.10;;;;;;;8.25;97.58;103486.50;5054524;28;20629;-68
2023/12/17 03:11:46;;;;;;;22.47;16.13;;;;;;;8.31;97.83;103490.75;5054799;28;20589;-68
2023/12/17 03:14:13;;;;;;;23.37;15.73;;;;;;;8.35;97.30;103488.78;5054377;28;20734;-68
2023/12/17 03:16:41;;;;;;;19.57;15.20;;;;;;;8.16;97.61;103481.59;5054404;28;20187;-68
2023/12/17 03:19:07;;;;;;;26.90;16.90;;;;;;;8.18;97.76;103481.53;5054710;28;20207;-68
2023/12/17 03:21:34;;;;;;;25.50;15.73;;;;;;;8.22;97.70;103483.13;5054375;28;20222;-68
2023/12/17 03:24:01;;;;;;;27.17;15.20;;;;;;;8.16;98.06;103478.06;5054556;28;20175;-68
2023/12/17 03:26:27;;;;;;;19.07;14.17;;;;;;;8.15;97.74;103476.31;5054243;28;20663;-68
2023/12/17 03:28:53;;;;;;;22.37;16.47;;;;;;;8.15;97.36;103471.84;5054416;28;20336;-68
2023/12/17 03:31:20;;;;;;;22.63;15.50;;;;;;;8.14;97.93;103466.63;5054445;28;20179;-68
2023/12/17 03:33:47;;;;;;;21.03;15.23;;;;;;;8.16;97.77;103462.94;5054004;28;20254;-68
2023/12/17 03:36:17;;;;;;;23.27;16.33;;;;;;;8.07;98.13;103465.13;5054088;28;20677;-68
2023/12/17 03:38:45;;;;;;;24.17;16.10;;;;;;;8.15;97.85;103463.00;5054189;28;20215;-68
2023/12/17 03:41:26;;;;;;;23.10;15.03;;;;;;;8.13;97.85;103464.88;5054245;28;20651;-68
2023/12/17 03:43:57;;;;;;;21.90;14.97;;;;;;;8.18;97.74;103458.41;5054495;28;20255;-68
2023/12/17 03:46:25;;;;;;;21.77;15.93;;;;;;;8.15;97.93;103457.66;5054138;28;20238;-68
2023/12/17 03:48:52;;;;;;;28.90;14.80;;;;;;;8.14;97.85;103440.84;5053955;28;20218;-71
2023/12/17 03:51:19;;;;;;;27.83;15.77;;;;;;;8.09;97.95;103442.84;5054071;28;20187;-71
2023/12/17 03:53:45;;;;;;;25.33;16.53;;;;;;;8.10;98.25;103435.72;5053935;28;20208;-71
2023/12/17 03:56:14;;;;;;;26.00;17.17;;;;;;;8.12;97.94;103432.03;5053553;28;20581;-71
2023/12/17 03:58:41;;;;;;;25.90;17.13;;;;;;;8.08;98.23;103432.25;5053188;28;20209;-71
2023/12/17 04:01:08;;;;;;;23.33;14.80;;;;;;;8.15;98.62;103441.69;5053575;28;20195;-71
2023/12/17 04:03:35;;;;;;;22.43;15.50;;;;;;;8.11;97.50;103440.97;5053574;28;20183;-71
2023/12/17 04:06:05;;;;;;;23.37;15.17;;;;;;;8.08;97.65;103427.78;5053546;28;20191;-71
2023/12/17 04:08:31;;;;;;;32.23;16.27;;;;;;;8.11;97.63;103434.75;5053428;28;20682;-71
2023/12/17 04:10:58;;;;;;;31.30;16.60;;;;;;;8.12;97.86;103433.84;5053689;28;20202;-71
2023/12/17 04:13:25;;;;;;;27.40;16.40;;;;;;;8.07;98.18;103438.50;5053350;28;20617;-71
2023/12/17 04:15:51;;;;;;;25.83;15.90;;;;;;;8.09;98.18;103436.66;5053920;28;20195;-71
2023/12/17 04:18:17;;;;;;;22.63;15.70;;;;;;;8.15;97.36;103439.88;5053281;28;20203;-70
2023/12/17 04:20:44;;;;;;;24.03;15.87;;;;;;;8.14;98.11;103435.50;5053325;28;20184;-71
2023/12/17 04:23:10;;;;;;;26.53;15.90;;;;;;;8.17;97.27;103427.38;5053274;28;20184;-71
2023/12/17 04:25:37;;;;;;;19.27;15.33;;;;;;;8.24;97.30;103423.47;5051954;28;20689;-71
2023/12/17 04:28:03;;;;;;;26.87;15.87;;;;;;;8.17;97.15;103429.16;5053768;28;20244;-71
2023/12/17 04:30:30;;;;;;;26.17;15.60;;;;;;;8.14;97.07;103426.66;5053684;28;20207;-71
2023/12/17 04:32:56;;;;;;;23.43;15.67;;;;;;;8.15;97.17;103421.22;5053349;28;20189;-71
2023/12/17 04:35:23;;;;;;;22.80;15.10;;;;;;;8.03;97.08;103424.44;5053080;28;20273;-71
2023/12/17 04:37:49;;;;;;;23.17;15.53;;;;;;;7.95;97.59;103417.75;5053093;28;20195;-71
2023/12/17 04:40:16;;;;;;;26.87;15.53;;;;;;;7.86;98.00;103412.81;5053051;28;20617;-70
2023/12/17 04:42:42;;;;;;;23.67;15.10;;;;;;;8.11;98.08;103416.97;5053088;28;20191;-71
2023/12/17 04:45:09;;;;;;;26.50;17.00;;;;;;;8.04;97.91;103418.19;5053053;28;20183;-71
2023/12/17 04:47:36;;;;;;;16.20;13.93;;;;;;;8.13;97.99;103415.13;5053568;28;20523;-71
2023/12/17 04:50:03;;;;;;;30.70;16.23;;;;;;;8.11;97.00;103411.66;5053028;28;20207;-71
2023/12/17 04:52:30;;;;;;;21.33;15.23;;;;;;;8.25;96.73;103403.91;5052947;28;20655;-71
2023/12/17 04:55:01;;;;;;;18.17;13.70;;;;;;;8.14;97.03;103402.66;5052918;28;20191;-71
2023/12/17 04:57:27;;;;;;;23.03;14.87;;;;;;;8.21;96.79;103402.31;5052944;28;20201;-71
2023/12/17 04:59:53;;;;;;;19.03;14.57;;;;;;;8.13;96.29;103403.59;5053112;28;20203;-71
2023/12/17 05:02:20;;;;;;;24.07;14.63;;;;;;;8.11;96.21;103416.97;5052908;28;20191;-71
2023/12/17 05:04:46;;;;;;;22.10;13.97;;;;;;;8.18;96.39;103404.25;5051639;28;20603;-71
2023/12/17 05:07:14;;;;;;;27.30;14.37;;;;;;;8.10;96.38;103414.41;5053395;28;20588;-71
2023/12/17 05:09:41;;;;;;;19.07;13.03;;;;;;;8.10;96.40;103409.94;5056213;28;20207;-71
2023/12/17 05:12:07;;;;;;;20.60;14.17;;;;;;;8.09;96.61;103407.34;5056838;28;20187;-71
2023/12/17 05:14:34;;;;;;;18.63;14.20;;;;;;;8.06;96.43;103400.31;5057142;28;20207;-71
2023/12/17 05:17:00;;;;;;;25.57;14.40;;;;;;;8.11;96.29;103392.13;5056741;28;20257;-71
2023/12/17 05:19:26;;;;;;;19.77;14.80;;;;;;;8.14;96.38;103392.88;5057153;28;20211;-70
2023/12/17 05:21:53;;;;;;;26.90;15.77;;;;;;;8.13;96.58;103392.94;5057035;28;20218;-70
2023/12/17 05:24:20;;;;;;;15.63;13.73;;;;;;;8.01;96.45;103394.38;5056658;28;20237;-71
2023/12/17 05:26:46;;;;;;;23.10;14.37;;;;;;;8.11;96.45;103393.00;5056885;28;20609;-71
2023/12/17 05:29:13;;;;;;;21.87;14.43;;;;;;;8.13;96.42;103391.16;5056782;28;20226;-70
2023/12/17 05:31:39;;;;;;;16.50;13.50;;;;;;;8.07;96.54;103385.22;5056686;28;20188;-70
2023/12/17 05:34:08;;;;;;;14.43;13.00;;;;;;;8.05;96.77;103390.63;5056343;28;20222;-70
2023/12/17 05:36:35;;;;;;;17.53;15.17;;;;;;;8.02;96.23;103384.59;5056352;28;20237;-70
2023/12/17 05:39:02;;;;;;;18.90;13.83;;;;;;;8.00;96.17;103381.97;5056227;28;20218;-68
2023/12/17 05:41:29;;;;;;;19.33;13.23;;;;;;;7.91;96.91;103373.53;5056502;28;20218;-68
2023/12/17 05:43:55;;;;;;;19.83;13.83;;;;;;;7.86;96.41;103376.41;5055316;28;20249;-68
2023/12/17 05:46:22;;;;;;;18.53;12.00;;;;;;;7.91;96.49;103366.41;5056708;28;20643;-68
2023/12/17 05:48:48;;;;;;;18.40;13.70;;;;;;;7.88;96.47;103369.22;5056254;28;20698;-68
2023/12/17 05:51:15;;;;;;;18.87;14.00;;;;;;;7.74;96.80;103372.50;5056074;28;20655;-68
2023/12/17 05:53:42;;;;;;;15.60;13.63;;;;;;;7.77;96.56;103372.34;5055942;28;20207;-68
2023/12/17 05:56:13;;;;;;;15.43;13.40;;;;;;;7.81;96.47;103381.94;5056276;28;20215;-68
2023/12/17 05:58:39;;;;;;;21.00;14.13;;;;;;;7.75;96.61;103378.69;5055881;28;20207;-68
2023/12/17 06:01:06;;;;;;;20.07;13.63;;;;;;;7.75;96.93;103384.03;5056156;28;20202;-68
2023/12/17 06:03:35;;;;;;;25.93;12.93;;;;;;;7.80;96.79;103379.38;5056138;28;20191;-68
2023/12/17 06:06:02;;;;;;;23.70;14.60;;;;;;;7.73;96.93;103381.41;5055787;28;20682;-68
2023/12/17 06:08:29;;;;;;;18.53;13.73;;;;;;;7.69;96.92;103382.50;5054417;28;20195;-68
2023/12/17 06:10:55;;;;;;;19.10;14.00;;;;;;;7.74;96.71;103380.50;5056014;28;20184;-68
2023/12/17 06:13:22;;;;;;;18.50;13.53;;;;;;;7.77;96.60;103382.13;5055618;28;20253;-68
2023/12/17 06:15:48;;;;;;;15.77;14.17;;;;;;;7.88;96.17;103382.53;5055644;28;20309;-67
2023/12/17 06:18:16;;;;;;;20.00;15.03;;;;;;;7.72;95.92;103390.31;5055620;28;20619;-67
2023/12/17 06:20:44;;;;;;;16.33;13.40;;;;;;;7.60;96.44;103392.66;5055120;28;20678;-68
2023/12/17 06:23:11;;;;;;;21.83;13.27;;;;;;;7.87;96.28;103386.13;5056043;28;20266;-67
2023/12/17 06:25:37;;;;;;;18.13;13.53;;;;;;;7.71;96.02;103390.41;5055707;28;20241;-67
2023/12/17 06:28:04;;;;;;;16.27;13.07;;;;;;;7.58;96.80;103391.88;5055670;28;20199;-68
2023/12/17 06:30:32;;;;;;;19.73;14.20;;;;;;;7.52;97.17;103400.13;5055265;28;20756;-68
2023/12/17 06:32:59;;;;;;;15.93;12.53;;;;;;;7.77;96.72;103391.00;5055282;28;20186;-68
2023/12/17 06:35:26;;;;;;;19.00;12.87;;;;;;;7.64;95.93;103397.78;5055179;28;20235;-68
2023/12/17 06:37:53;;;;;;;17.73;12.93;;;;;;;7.50;96.54;103405.53;5055192;28;20191;-68
2023/12/17 06:40:19;;;;;;;14.97;12.53;;;;;;;7.57;96.97;103401.66;5055109;28;20581;-68
2023/12/17 06:42:45;;;;;;;24.17;13.60;;;;;;;7.44;97.17;103416.44;5055653;28;20191;-68
2023/12/17 06:45:12;;;;;;;13.30;11.23;;;;;;;7.54;97.27;103423.09;5055357;28;20233;-68
2023/12/17 06:47:38;;;;;;;17.30;12.67;;;;;;;7.61;96.75;103427.22;5055000;28;20281;-68
2023/12/17 06:50:06;;;;;;;14.80;12.47;;;;;;;7.71;96.60;103427.69;5055503;28;20242;-68
2023/12/17 06:52:33;;;;;;;15.87;12.30;;;;;;;7.65;96.04;103430.59;5055230;28;20192;-68
2023/12/17 06:55:00;;;;;;;14.00;12.60;;;;;;;7.56;96.59;103428.34;5054840;28;20337;-68
2023/12/17 06:57:26;;;;;;;13.50;11.67;;;;;;;7.52;96.68;103427.63;5054830;28;20257;-68
2023/12/17 06:59:52;;;;;;;19.03;12.60;;;;;;;7.65;96.77;103431.47;5054795;28;20199;-68
2023/12/17 07:02:19;;;;;;;15.23;11.93;;;;;;;7.53;96.99;103428.47;5055030;28;20607;-68
2023/12/17 07:04:46;;;;;;;18.10;12.83;;;;;;;7.54;96.69;103435.53;5054963;28;20545;-68
2023/12/17 07:07:12;;;;;;;15.87;11.53;;;;;;;7.50;96.81;103434.81;5054644;28;20187;-68
2023/12/17 07:09:38;;;;;;;17.20;12.00;;;;;;;7.75;96.25;103434.63;5054520;28;20222;-68
2023/12/17 07:12:06;;;;;;;13.83;12.30;;;;;;;7.63;95.90;103438.69;5054596;28;20187;-68
2023/12/17 07:14:32;;;;;;;16.80;11.83;;;;;;;7.51;96.05;103441.00;5054988;28;20234;-68
2023/12/17 07:16:59;;;;;;;15.00;12.17;;;;;;;7.50;96.37;103439.28;5054281;28;20199;-68
2023/12/17 07:19:25;;;;;;;22.47;12.47;;;;;;;7.51;96.35;103433.03;5054478;28;20207;-68
2023/12/17 07:21:52;;;;;;;13.07;11.33;;;;;;;7.46;96.65;103430.56;5054386;28;20214;-68
2023/12/17 07:24:18;;;;;;;15.07;13.33;;;;;;;7.38;96.96;103434.47;5054310;28;20191;-68
2023/12/17 07:26:45;;;;;;;19.10;12.67;;;;;;;7.42;96.87;103438.72;5054541;28;20589;-68
2023/12/17 07:29:12;;;;;;;13.77;11.23;;;;;;;7.50;96.42;103426.84;5054353;28;20207;-68
2023/12/17 07:31:38;;;;;;;13.77;12.40;;;;;;;7.57;96.16;103430.09;5054044;28;20195;-68
2023/12/17 07:34:05;;;;;;;13.13;11.93;;;;;;;7.46;96.38;103435.88;5054464;28;20207;-68
2023/12/17 07:36:31;;;;;;;13.77;12.10;;;;;;;7.57;95.94;103433.63;5054568;28;20198;-67
2023/12/17 07:38:58;;;;;;;12.83;11.60;;;;;;;7.57;95.69;103435.41;5054045;28;20301;-67
2023/12/17 07:41:24;;;;;;;12.70;11.43;;;;;;;7.48;96.08;103442.00;5054583;28;20183;-67
2023/12/17 07:43:50;;;;;;;15.90;12.87;;;;;;;7.48;96.26;103449.09;5054149;28;20528;-67
2023/12/17 07:46:17;;;;;;;20.40;11.83;;;;;;;7.30;96.98;103450.72;5054457;28;20188;-67
2023/12/17 07:48:43;;;;;;;13.93;11.50;;;;;;;7.26;97.11;103452.66;5053893;28;20207;-68
2023/12/17 07:51:10;;;;;;;22.63;11.60;;;;;;;7.46;97.32;103445.66;5053947;28;20191;-68
2023/12/17 07:53:36;;;;;;;16.87;12.83;;;;;;;7.46;96.57;103445.66;5054307;28;20254;-68
2023/12/17 07:56:03;;;;;;;13.10;11.83;;;;;;;7.42;96.49;103436.94;5054039;28;20628;-68
2023/12/17 07:58:31;;;;;;;13.00;11.70;;;;;;;7.63;95.57;103443.13;5054161;28;20181;-68
2023/12/17 08:00:58;;;;;;;13.73;11.10;;;;;;;7.61;96.40;103445.00;5053945;28;20583;-69
2023/12/17 08:03:24;;;;;;;16.70;12.13;;;;;;;7.59;96.07;103446.88;5053882;28;20623;-69
2023/12/17 08:05:52;;;;;;;13.60;11.70;;;;;;;7.60;96.08;103449.44;5054114;28;20246;-69
2023/12/17 08:08:19;;;;;;;11.77;10.67;;;;;;;7.53;96.35;103437.34;5053511;28;20188;-69
2023/12/17 08:10:46;;;;;;;15.00;11.63;;;;;;;7.48;96.33;103441.13;5053496;28;20187;-69
2023/12/17 08:13:14;;;;;;;16.93;11.43;;;;;;;7.55;96.06;103447.94;5053427;28;20564;-69
2023/12/17 08:15:42;;;;;;;12.73;11.13;;;;;;;7.51;95.90;103446.34;5053314;28;20397;-69
2023/12/17 08:18:09;;;;;;;11.73;10.53;;;;;;;7.57;95.74;103435.41;5053346;28;20572;-69
2023/12/17 08:20:36;;;;;;;16.27;11.87;;;;;;;7.49;96.02;103440.19;5053296;28;20293;-69
2023/12/17 08:23:02;;;;;;;12.83;11.53;;;;;;;7.42;96.42;103438.72;5053812;28;20670;-69
2023/12/17 08:25:30;;;;;;;11.37;10.27;;;;;;;7.54;96.48;103432.88;5053646;28;20190;-68
2023/12/17 08:27:57;;;;;;;15.30;11.33;;;;;;;7.47;96.21;103426.09;5053823;28;20275;-68
2023/12/17 08:30:24;;;;;;;11.40;9.70;;;;;;;7.62;95.75;103420.09;5053127;28;20211;-68
2023/12/17 08:32:51;;;;;;;12.67;11.37;;;;;;;7.53;95.88;103421.38;5053178;28;20198;-68
2023/12/17 08:35:19;;;;;;;20.63;11.43;;;;;;;7.54;95.82;103416.91;5053360;28;20210;-68
2023/12/17 08:37:45;;;;;;;11.70;10.53;;;;;;;7.52;95.93;103432.06;5053093;28;20187;-68
2023/12/17 08:40:12;;;;;;;11.27;10.00;;;;;;;7.48;95.76;103431.34;5053119;28;20207;-68
2023/12/17 08:42:38;;;;;;;10.23;9.40;;;;;;;7.46;95.72;103435.00;5052564;28;20194;-68
2023/12/17 08:45:05;;;;;;;14.10;8.90;;;;;;;7.49;95.61;103435.75;5053311;28;20659;-68
2023/12/17 08:47:32;;;;;;;9.50;8.63;;;;;;;7.56;95.28;103439.84;5052970;28;20659;-68
2023/12/17 08:50:01;;;;;;;10.20;8.93;;;;;;;7.53;95.09;103444.44;5053051;28;20214;-68
2023/12/17 08:52:27;;;;;;;9.57;8.67;;;;;;;7.46;95.18;103448.31;5053236;28;20241;-68
2023/12/17 08:54:54;;;;;;;11.07;8.17;;;;;;;7.38;95.63;103443.31;5052925;28;20202;-68
2023/12/17 08:57:20;;;;;;;9.27;8.50;;;;;;;7.38;95.03;103442.47;5052945;28;20187;-68
2023/12/17 08:59:46;;;;;;;14.50;8.73;;;;;;;7.32;95.63;103444.44;5052848;28;20285;-68
2023/12/17 09:02:13;;;;;;;10.07;7.57;;;;;;;7.38;95.07;103442.47;5052906;28;20186;-68
2023/12/17 09:04:39;;;;;;;8.97;8.20;;;;;;;7.35;94.54;103446.09;5052894;28;20183;-68
2023/12/17 09:07:06;;;;;;;9.60;7.83;;;;;;;7.37;94.44;103438.06;5052788;28;20671;-68
2023/12/17 09:09:32;;;;;;;9.80;8.70;;;;;;;7.33;93.94;103432.88;5052740;28;20215;-68
2023/12/17 09:11:59;;;;;;;10.00;9.00;;;;;;;7.26;94.14;103436.69;5052788;28;20275;-68
2023/12/17 09:14:25;;;;;;;11.23;9.70;;;;;;;7.29;93.61;103441.91;5052988;28;20222;-68
2023/12/17 09:16:52;;;;;;;11.13;9.87;;;;;;;7.31;93.68;103447.16;5052817;28;20235;-68
2023/12/17 09:19:18;;;;;;;11.47;10.27;;;;;;;7.18;93.48;103451.25;5053262;28;20269;-68
2023/12/17 09:21:45;;;;;;;14.13;10.30;;;;;;;7.10;93.67;103438.28;5052722;28;20180;-68
2023/12/17 09:24:11;;;;;;;21.00;12.00;;;;;;;6.90;93.63;103430.25;5052961;28;20192;-68
2023/12/17 09:26:38;;;;;;;14.07;10.40;;;;;;;6.89;93.85;103437.34;5053226;28;20205;-68
2023/12/17 09:29:04;;;;;;;20.07;11.50;;;;;;;6.79;94.31;103438.63;5052914;28;20207;-69
2023/12/17 09:31:31;;;;;;;20.47;12.87;;;;;;;6.77;94.28;103434.31;5052691;28;20183;-69
2023/12/17 09:33:57;;;;;;;20.80;12.37;;;;;;;6.78;94.39;103438.72;5052611;28;20524;-68
2023/12/17 09:36:25;;;;;;;15.23;12.03;;;;;;;6.88;94.71;103434.75;5052529;28;20214;-68
2023/12/17 09:38:52;;;;;;;13.57;10.67;;;;;;;6.98;94.58;103429.94;5052479;28;20299;-68
2023/12/17 09:41:19;;;;;;;17.40;10.40;;;;;;;6.97;94.27;103431.72;5052476;28;20190;-68
2023/12/17 09:43:46;;;;;;;20.43;10.87;;;;;;;7.05;94.27;103434.06;5052810;28;20176;-68
2023/12/17 09:46:13;;;;;;;20.73;10.90;;;;;;;7.17;94.30;103446.88;5052730;28;20582;-68
2023/12/17 09:48:40;;;;;;;12.90;9.43;;;;;;;7.15;93.63;103440.75;5052611;28;20218;-69
2023/12/17 09:51:12;;;;;;;12.10;9.23;;;;;;;7.16;93.55;103435.38;5052761;28;20180;-68
2023/12/17 09:53:39;;;;;;;14.30;8.40;;;;;;;7.16;93.15;103435.38;5052444;28;20187;-68
2023/12/17 09:56:06;;;;;;;13.77;9.07;;;;;;;7.11;93.69;103434.69;5053371;28;20682;-68
2023/12/17 09:58:32;;;;;;;11.27;8.83;;;;;;;7.17;93.46;103434.41;5056375;28;20728;-69
2023/12/17 10:00:59;;;;;;;13.47;9.80;;;;;;;7.16;93.34;103432.72;5055889;28;20201;-68
2023/12/17 10:03:25;;;;;;;13.33;8.90;;;;;;;7.10;93.18;103440.94;5056499;28;20590;-68
2023/12/17 10:05:53;;;;;;;12.57;9.03;;;;;;;7.05;93.78;103434.94;5056145;28;20175;-68
2023/12/17 10:08:22;;;;;;;13.57;8.93;;;;;;;7.23;93.80;103434.19;5055991;28;20182;-69
2023/12/17 10:10:48;;;;;;;11.27;9.20;;;;;;;7.19;92.55;103429.91;5055749;28;20186;-68
2023/12/17 10:13:19;;;;;;;13.90;10.53;;;;;;;7.05;93.36;103429.59;5055713;28;20558;-68
2023/12/17 10:15:53;;;;;;;13.40;10.43;;;;;;;7.06;93.84;103427.81;5055824;28;20267;-68
2023/12/17 10:18:21;;;;;;;15.87;10.17;;;;;;;7.08;93.34;103433.97;5055420;28;20205;-69
2023/12/17 10:20:49;;;;;;;15.30;10.40;;;;;;;7.06;93.53;103434.00;5055787;28;20193;-68
2023/12/17 10:23:15;;;;;;;17.67;11.33;;;;;;;7.06;93.91;103419.84;5055484;28;20218;-68
2023/12/17 10:25:43;;;;;;;16.43;10.70;;;;;;;7.00;94.15;103412.13;5055376;28;20187;-68
2023/12/17 10:28:11;;;;;;;17.63;11.30;;;;;;;7.07;94.21;103409.16;5055396;28;20184;-68
2023/12/17 10:30:38;;;;;;;14.93;11.43;;;;;;;7.13;94.10;103405.38;5055311;28;20762;-68
2023/12/17 10:33:11;;;;;;;22.90;11.90;;;;;;;7.22;93.36;103407.63;5055350;28;20183;-68
2023/12/17 10:35:38;;;;;;;17.33;10.77;;;;;;;7.24;93.71;103403.13;5055797;28;20195;-68
2023/12/17 10:38:08;;;;;;;21.60;12.60;;;;;;;7.25;93.47;103402.19;5055511;28;20187;-68
2023/12/17 10:40:36;;;;;;;16.67;11.50;;;;;;;7.35;93.62;103393.75;5055067;28;20293;-68
2023/12/17 10:43:04;;;;;;;21.40;13.20;;;;;;;7.12;94.15;103395.66;5055234;28;20179;-68
2023/12/17 10:45:34;;;;;;;29.90;14.90;;;;;;;7.08;94.78;103389.59;5055337;28;20650;-68
2023/12/17 10:48:02;;;;;;;23.63;12.60;;;;;;;7.12;93.76;103375.25;5055091;28;20266;-68
2023/12/17 10:50:29;;;;;;;25.97;12.83;;;;;;;7.13;94.21;103384.09;5054905;28;20221;-68
2023/12/17 10:52:56;;;;;;;23.70;13.20;;;;;;;7.19;94.00;103383.81;5054939;28;20648;-68
2023/12/17 10:55:23;;;;;;;23.73;13.67;;;;;;;7.15;94.45;103380.44;5054925;28;20203;-68
2023/12/17 10:57:58;;;;;;;26.60;14.63;;;;;;;7.14;94.31;103384.00;5054865;28;20669;-68
2023/12/17 11:00:27;;;;;;;26.80;15.60;;;;;;;7.10;94.20;103371.78;5054763;28;20211;-68
2023/12/17 11:02:59;;;;;;;30.10;15.57;;;;;;;7.05;94.46;103376.41;5054899;28;20191;-68
2023/12/17 11:05:26;;;;;;;37.87;17.53;;;;;;;7.06;94.51;103377.28;5055236;28;20221;-68
2023/12/17 11:07:53;;;;;;;22.07;14.27;;;;;;;7.13;93.96;103370.78;5054678;28;20199;-68
2023/12/17 11:10:19;;;;;;;33.80;15.03;;;;;;;7.07;93.90;103368.38;5054495;28;20207;-68
2023/12/17 11:12:49;;;;;;;27.07;16.00;;;;;;;7.00;94.00;103367.75;5054574;28;20191;-68
2023/12/17 11:15:21;;;;;;;26.57;14.90;;;;;;;6.93;93.61;103368.94;5053886;28;20282;-68
2023/12/17 11:17:54;;;;;;;28.83;14.67;;;;;;;7.02;93.93;103371.22;5054537;28;20608;-68